Villas de Buenaventura, Puerto Rico
Current Conditions -  °F | °C
As of 5:53 PM on Saturday 20 Dec 2014 (Local Time) from TJNR Reporting Station
Overcast Overcast  
Wind Chill: 78°   Ceiling: 5000
Heat Index: 80°   Visibility: 10mi
Dew Point: 72°   Wind: 5mph
Humidity: 81%   Direction: 70°ENE
Pressure: 30.03"   Gusts: NA
Location:  18.0547°N, 65.8738°W
Report Text: TJNR 202153Z AUTO 07004KT 10SM SCT035 BKN050 OVC070 26/22 A3003 RMK AO2 RAE2055 SLP167 P0000 T02560222 $
Loading
Personal Weather Stations






























Interactive Weather Map New forecast layout! Learn more

10-Day Weather Forecast

Advertisements
Track Severe Weather on mobile